Bělehrad, Serbia

16:44 CET 9. Únor 2016 (GMT +0100)
Netiks Zvezdara | | Change Station
CLOSE
Current Station
Osobní povětrnostní stanice
Location: Beograd,
Nadmořská výška: 545 ft
Poblíž povětrnostní stanice

Výška 545 ft 44.80 °N, 20.49 °E | Updated 54 seconds ago

Clear
Jasno
60.8 °F
Pocit jako 60.8 °F
S
3.8
Vítr proměnlivý Vítr od SV
Gusts 5.4 mil/h

Dnes
Vysoké -- | Nízké -- °F
--% Možnost srážek
Včera
Vysoké -- | Nízké -- °F
Precip. -- inčů
Tlak 29.86 inčů
Viditelnost -9999.0 mílí
Zataženo
Rosný bod 36 °F
Vlhkost 40%
Dešťové srážky 0.00 inčů
Sněhová pokrývka Není k dispozici
6:48 AM 4:56 PM
Nový měsíc, 1% visible
METAR LYBE 091530Z 11007KT CAVOK 15/06 Q1011 NOSIG
Tlak 29.86 inčů
Viditelnost -9999.0 mílí
Zataženo
Rosný bod 36 °F
Vlhkost 40%
Dešťové srážky 0.00 inčů
Sněhová pokrývka Není k dispozici
6:48 AM 4:56 PM
Nový měsíc, 1% visible
METAR LYBE 091530Z 11007KT CAVOK 15/06 Q1011 NOSIG

10-Day Weather Forecast

Almanac

Astronomie

Feb. 09, 2016 Východ Západ
Skutečný čas
Občanský soumrak
Námořní soumrak
Astronomický soumrak
Měsíc
Délka denního světla
Délka dne
Tomorrow will be .
, % of the Moon is Illuminated

Dnešní extrémy

Nejvyšší hodnoty ve státě Nejnižší hodnoty ve státě

Community

WunderPhotos

Upload Photos

1,891,628 snímků staženo!

WunderBlog® & News

Nearby

Kvalita ovzduší

  Kvalita ovzduší Index kvality ovzduší Polutant
Not available.

Výška sněhu

Station Hloubka Nadmořská výška

Seizmická činnost

Město Distance Mag. Čas & datum
Minimální zobrazený rozsah je 2.5.

Pobřežní teplota vody

Lokalita Teplota

Stations

Poblíž povětrnostní stanice

Lokace stanice Tepl. Ochlazování větrem Rosný bod Vlhkost Vítr Precip. Výška Čas hlášení Typ